Time;durP1;ratioP1;P1;durP2;ratioP2;P2;SDS_P1;SDS_P2;PMS_P1;PMS_P2;Temp;Humidity;BMP_temperature;BMP_pressure;BME280_temperature;BME280_humidity;BME280_pressure;Samples;Min_cycle;Max_cycle;Signal;HPM_P1;HPM_P2
2023/12/22 00:00:41;;;;;;;0.30;0.30;;;8.20;99.90;;;;;;5090108;28;20180;-77
2023/12/22 00:03:07;;;;;;;0.30;0.20;;;8.20;99.90;;;;;;5091813;28;20672;-76
2023/12/22 00:05:32;;;;;;;0.30;0.30;;;8.30;99.90;;;;;;5090113;28;20638;-78
2023/12/22 00:07:58;;;;;;;0.30;0.20;;;8.30;99.90;;;;;;5091582;28;20223;-77
2023/12/22 00:10:24;;;;;;;0.30;0.20;;;8.40;99.90;;;;;;5089622;28;20287;-77
2023/12/22 00:12:49;;;;;;;0.30;0.20;;;8.40;99.90;;;;;;5089361;28;20211;-77
2023/12/22 00:15:15;;;;;;;0.30;0.20;;;8.50;99.90;;;;;;5091052;28;20205;-80
2023/12/22 00:17:41;;;;;;;0.30;0.20;;;8.50;99.90;;;;;;5091698;28;20174;-80
2023/12/22 00:20:09;;;;;;;0.30;0.30;;;8.60;99.90;;;;;;5089791;28;20259;-77
2023/12/22 00:22:35;;;;;;;1.00;1.00;;;8.60;99.90;;;;;;5091564;28;20199;-77
2023/12/22 00:25:00;;;;;;;0.30;0.20;;;8.60;99.90;;;;;;5091215;28;20181;-80
2023/12/22 00:27:26;;;;;;;0.30;0.20;;;8.70;99.90;;;;;;5089901;28;20579;-77
2023/12/22 00:29:53;;;;;;;6.13;5.93;;;8.70;99.90;;;;;;5091588;28;20224;-77
2023/12/22 00:32:18;;;;;;;0.30;0.20;;;8.70;99.90;;;;;;5091215;28;20221;-80
2023/12/22 00:34:44;;;;;;;0.30;0.20;;;8.70;99.90;;;;;;5090959;28;20196;-77
2023/12/22 00:37:11;;;;;;;0.30;0.20;;;8.70;99.90;;;;;;5090908;28;20261;-81
2023/12/22 00:39:37;;;;;;;13.43;9.30;;;8.70;99.90;;;;;;5091080;28;20718;-80
2023/12/22 00:42:04;;;;;;;0.30;0.20;;;8.70;99.90;;;;;;5088963;28;20196;-80
2023/12/22 00:44:30;;;;;;;6.50;6.20;;;8.70;99.90;;;;;;5089825;28;20208;-76
2023/12/22 00:46:55;;;;;;;0.43;0.43;;;8.70;99.90;;;;;;5090659;28;20180;-80
2023/12/22 00:49:21;;;;;;;0.30;0.20;;;8.70;99.90;;;;;;5089424;28;20207;-76
2023/12/22 00:51:47;;;;;;;0.30;0.20;;;8.60;99.90;;;;;;5088623;28;20409;-76
2023/12/22 00:54:13;;;;;;;0.30;0.20;;;8.60;99.90;;;;;;5090883;28;20289;-80
2023/12/22 00:56:39;;;;;;;0.30;0.20;;;8.50;99.90;;;;;;5088892;28;20479;-77
2023/12/22 00:59:04;;;;;;;0.30;0.20;;;8.50;99.90;;;;;;5090145;28;20215;-80
2023/12/22 01:01:30;;;;;;;0.30;0.20;;;8.50;99.90;;;;;;5090141;28;20172;-77
2023/12/22 01:03:56;;;;;;;0.30;0.20;;;8.50;99.90;;;;;;5089354;28;20203;-77
2023/12/22 01:06:21;;;;;;;0.30;0.20;;;8.50;99.90;;;;;;5090234;28;20173;-77
2023/12/22 01:08:49;;;;;;;0.30;0.20;;;8.40;99.90;;;;;;5090480;28;20567;-77
2023/12/22 01:11:17;;;;;;;0.30;0.20;;;8.40;99.90;;;;;;5089915;28;20171;-80
2023/12/22 01:13:43;;;;;;;0.30;0.20;;;8.40;99.90;;;;;;5090394;28;20211;-80
2023/12/22 01:16:09;;;;;;;0.30;0.20;;;8.40;99.90;;;;;;5088682;28;20224;-77
2023/12/22 01:18:34;;;;;;;0.30;0.20;;;8.40;99.90;;;;;;5090698;28;20200;-77
2023/12/22 01:21:00;;;;;;;0.30;0.20;;;8.40;99.90;;;;;;5090041;28;20250;-76
2023/12/22 01:23:26;;;;;;;0.30;0.20;;;8.50;99.90;;;;;;5088994;28;20684;-80
2023/12/22 01:25:52;;;;;;;0.30;0.20;;;8.50;99.90;;;;;;5089871;28;20409;-77
2023/12/22 01:28:18;;;;;;;0.30;0.27;;;8.50;99.90;;;;;;5090422;28;20200;-77
2023/12/22 01:30:43;;;;;;;0.30;0.20;;;8.50;99.90;;;;;;5088390;28;20199;-79
2023/12/22 01:33:09;;;;;;;0.30;0.20;;;8.50;99.90;;;;;;5088910;28;20449;-77
2023/12/22 01:35:35;;;;;;;0.30;0.20;;;8.60;99.90;;;;;;5089660;28;20224;-77
2023/12/22 01:38:00;;;;;;;0.30;0.20;;;8.70;99.90;;;;;;5088901;28;20207;-77
2023/12/22 01:40:26;;;;;;;0.30;0.20;;;8.80;99.90;;;;;;5088187;28;20191;-78
2023/12/22 01:42:52;;;;;;;0.30;0.20;;;8.90;99.90;;;;;;5089634;28;20208;-77
2023/12/22 01:45:17;;;;;;;0.30;0.20;;;9.00;99.90;;;;;;5088441;28;20230;-79
2023/12/22 01:47:45;;;;;;;0.30;0.20;;;9.10;99.90;;;;;;5090109;28;20251;-79
2023/12/22 01:50:11;;;;;;;0.30;0.20;;;9.10;99.90;;;;;;5089501;28;20237;-81
2023/12/22 01:52:39;;;;;;;18.42;8.90;;;9.20;99.90;;;;;;5089667;28;20742;-77
2023/12/22 01:55:06;;;;;;;0.30;0.20;;;9.10;99.90;;;;;;5088378;28;20626;-77
2023/12/22 01:57:34;;;;;;;0.30;0.20;;;9.10;99.90;;;;;;5088216;28;20552;-77
2023/12/22 02:00:00;;;;;;;0.30;0.20;;;9.00;99.90;;;;;;5087566;28;20176;-80
2023/12/22 02:02:26;;;;;;;0.30;0.20;;;8.90;99.90;;;;;;5089481;28;20321;-77
2023/12/22 02:04:53;;;;;;;0.30;0.20;;;9.00;99.90;;;;;;5089422;28;20204;-81
2023/12/22 02:07:19;;;;;;;12.13;11.18;;;8.90;99.90;;;;;;5089667;28;20172;-77
2023/12/22 02:09:45;;;;;;;0.30;0.20;;;8.90;99.90;;;;;;5088055;28;20204;-81
2023/12/22 02:12:10;;;;;;;0.30;0.20;;;8.90;99.90;;;;;;5089393;28;20175;-77
2023/12/22 02:14:36;;;;;;;0.30;0.20;;;8.90;99.90;;;;;;5089588;28;20636;-81
2023/12/22 02:17:06;;;;;;;0.30;0.20;;;8.90;99.90;;;;;;5087930;28;20238;-81
2023/12/22 02:19:42;;;;;;;0.30;0.20;;;8.90;99.90;;;;;;5087992;28;20785;-77
2023/12/22 02:22:09;;;;;;;0.30;0.20;;;8.90;99.90;;;;;;5088147;28;20180;-81
2023/12/22 02:24:35;;;;;;;0.30;0.20;;;8.90;99.90;;;;;;5089491;28;20204;-81
2023/12/22 02:27:25;;;;;;;0.30;0.20;;;8.90;99.90;;;;;;5089403;28;20671;-80
2023/12/22 02:29:57;;;;;;;0.30;0.20;;;8.90;99.90;;;;;;5089300;28;20232;-80
2023/12/22 02:32:28;;;;;;;0.30;0.20;;;8.90;99.90;;;;;;5089599;28;20173;-77
2023/12/22 02:34:56;;;;;;;0.70;0.70;;;8.90;99.90;;;;;;5089743;28;20293;-77
2023/12/22 02:37:23;;;;;;;0.30;0.20;;;8.90;99.90;;;;;;5092074;28;20180;-81
2023/12/22 02:39:51;;;;;;;0.30;0.20;;;8.90;99.90;;;;;;5091636;28;20208;-80
2023/12/22 02:42:17;;;;;;;0.30;0.20;;;8.90;99.90;;;;;;5091537;28;20180;-77
2023/12/22 02:44:43;;;;;;;0.30;0.20;;;8.90;99.90;;;;;;5093327;28;20309;-77
2023/12/22 02:47:08;;;;;;;0.30;0.30;;;9.00;99.90;;;;;;5091817;28;20275;-81
2023/12/22 02:49:34;;;;;;;0.30;0.20;;;8.90;99.90;;;;;;5093389;28;20556;-77
2023/12/22 02:52:00;;;;;;;0.30;0.20;;;8.90;99.90;;;;;;5091386;28;20172;-81
2023/12/22 02:54:28;;;;;;;0.30;0.20;;;8.90;99.90;;;;;;5092821;28;20192;-77
2023/12/22 02:56:53;;;;;;;0.30;0.20;;;8.90;99.90;;;;;;5091085;28;20622;-81
2023/12/22 02:59:19;;;;;;;0.30;0.20;;;8.90;99.90;;;;;;5091526;28;20227;-77
2023/12/22 03:01:45;;;;;;;0.30;0.20;;;8.90;99.90;;;;;;5092293;28;20179;-77
2023/12/22 03:04:10;;;;;;;1.33;1.30;;;8.90;99.90;;;;;;5091867;28;20196;-77
2023/12/22 03:06:36;;;;;;;0.30;0.20;;;8.80;99.90;;;;;;5092697;28;20176;-77
2023/12/22 03:09:02;;;;;;;0.30;0.20;;;8.80;99.90;;;;;;5091331;28;20200;-77
2023/12/22 03:11:28;;;;;;;0.30;0.20;;;8.90;99.90;;;;;;5091071;28;20676;-77
2023/12/22 03:13:53;;;;;;;0.30;0.20;;;8.90;99.90;;;;;;5092723;28;20266;-81
2023/12/22 03:16:19;;;;;;;0.40;0.30;;;8.90;99.90;;;;;;5092212;28;20240;-80
2023/12/22 03:18:45;;;;;;;0.30;0.20;;;8.90;99.90;;;;;;5092912;28;20205;-77
2023/12/22 03:21:19;;;;;;;0.30;0.20;;;8.90;99.90;;;;;;5092448;28;20232;-80
2023/12/22 03:23:44;;;;;;;0.30;0.20;;;8.90;99.90;;;;;;5092772;28;20243;-77
2023/12/22 03:26:10;;;;;;;0.30;0.20;;;8.90;99.90;;;;;;5090977;28;20211;-77
2023/12/22 03:28:36;;;;;;;0.30;0.20;;;8.90;99.90;;;;;;5092754;28;20440;-80
2023/12/22 03:31:02;;;;;;;0.30;0.30;;;8.80;99.90;;;;;;5091969;28;20176;-78
2023/12/22 03:33:28;;;;;;;0.30;0.20;;;8.80;99.90;;;;;;5092485;28;20193;-77
2023/12/22 03:35:53;;;;;;;0.30;0.20;;;8.80;99.90;;;;;;5090562;28;20219;-77
2023/12/22 03:38:19;;;;;;;1.40;1.40;;;8.80;99.90;;;;;;5092168;28;20200;-80
2023/12/22 03:40:45;;;;;;;0.30;0.20;;;8.70;99.90;;;;;;5091814;28;20576;-80
2023/12/22 03:43:10;;;;;;;0.30;0.20;;;8.70;99.90;;;;;;5092237;28;20955;-80
2023/12/22 03:45:36;;;;;;;0.30;0.20;;;8.70;99.90;;;;;;5089465;28;20275;-77
2023/12/22 03:48:02;;;;;;;0.30;0.20;;;8.60;99.90;;;;;;5091645;28;20267;-80
2023/12/22 03:50:28;;;;;;;0.30;0.20;;;8.60;99.90;;;;;;5091763;28;20364;-76
2023/12/22 03:52:53;;;;;;;0.30;0.20;;;8.60;99.90;;;;;;5090273;28;20449;-80
2023/12/22 03:55:19;;;;;;;0.30;0.20;;;8.50;99.90;;;;;;5091324;28;20192;-80
2023/12/22 03:57:44;;;;;;;0.30;0.20;;;8.40;99.90;;;;;;5091549;28;20184;-77
2023/12/22 04:00:11;;;;;;;0.30;0.20;;;8.40;99.90;;;;;;5089721;28;20179;-77
2023/12/22 04:02:36;;;;;;;0.30;0.20;;;8.40;99.90;;;;;;5090412;28;20181;-77
2023/12/22 04:05:02;;;;;;;0.30;0.20;;;8.40;99.90;;;;;;5090276;28;20173;-77
2023/12/22 04:07:29;;;;;;;0.30;0.20;;;8.40;99.90;;;;;;5091419;28;20226;-77
2023/12/22 04:09:55;;;;;;;0.30;0.20;;;8.30;99.90;;;;;;5091563;28;20637;-80
2023/12/22 04:12:20;;;;;;;0.30;0.20;;;8.30;99.90;;;;;;5091265;28;20429;-77
2023/12/22 04:14:46;;;;;;;0.30;0.20;;;8.30;99.90;;;;;;5091477;28;20202;-77
2023/12/22 04:17:12;;;;;;;0.30;0.20;;;8.20;99.90;;;;;;5089789;28;20216;-77
2023/12/22 04:19:37;;;;;;;0.30;0.20;;;8.20;99.90;;;;;;5091222;28;20300;-80
2023/12/22 04:22:03;;;;;;;0.30;0.20;;;8.20;99.90;;;;;;5091404;28;20247;-80
2023/12/22 04:24:29;;;;;;;0.30;0.20;;;8.10;99.90;;;;;;5091532;28;20675;-79
2023/12/22 04:26:54;;;;;;;0.30;0.20;;;8.10;99.90;;;;;;5089733;28;20179;-77
2023/12/22 04:29:20;;;;;;;0.30;0.20;;;8.20;99.90;;;;;;5091375;28;20233;-80
2023/12/22 04:31:46;;;;;;;0.30;0.20;;;8.10;99.90;;;;;;5090938;28;20263;-77
2023/12/22 04:34:15;;;;;;;0.30;0.20;;;8.10;99.90;;;;;;5091606;28;20338;-77
2023/12/22 04:36:41;;;;;;;0.30;0.20;;;8.20;99.90;;;;;;5090810;28;20208;-77
2023/12/22 04:39:07;;;;;;;0.30;0.20;;;8.10;99.90;;;;;;5091551;28;20184;-80
2023/12/22 04:41:33;;;;;;;0.30;0.20;;;8.20;99.90;;;;;;5089487;28;20271;-80
2023/12/22 04:44:02;;;;;;;0.30;0.20;;;8.20;99.90;;;;;;5090800;28;20502;-80
2023/12/22 04:46:29;;;;;;;0.30;0.20;;;8.20;99.90;;;;;;5090665;28;20173;-80
2023/12/22 04:48:55;;;;;;;0.30;0.20;;;8.20;99.90;;;;;;5091269;28;20199;-80
2023/12/22 04:51:21;;;;;;;0.30;0.20;;;8.20;99.90;;;;;;5089184;28;20180;-80
2023/12/22 04:53:47;;;;;;;0.30;0.20;;;8.20;99.90;;;;;;5089086;28;20202;-80
2023/12/22 04:56:12;;;;;;;0.30;0.20;;;8.20;99.90;;;;;;5088973;28;20271;-77
2023/12/22 04:58:38;;;;;;;0.30;0.20;;;8.20;99.90;;;;;;5089121;28;20204;-80
2023/12/22 05:01:04;;;;;;;0.30;0.20;;;8.20;99.90;;;;;;5089433;28;20231;-76
2023/12/22 05:03:30;;;;;;;0.30;0.20;;;8.20;99.90;;;;;;5090305;28;20195;-76
2023/12/22 05:05:55;;;;;;;0.30;0.20;;;8.20;99.90;;;;;;5089941;28;20641;-77
2023/12/22 05:08:21;;;;;;;0.30;0.20;;;8.20;99.90;;;;;;5090900;28;20583;-76
2023/12/22 05:10:47;;;;;;;0.30;0.20;;;8.20;99.90;;;;;;5088439;28;20195;-77
2023/12/22 05:13:12;;;;;;;0.30;0.20;;;8.20;99.90;;;;;;5089806;28;20193;-80
2023/12/22 05:15:38;;;;;;;0.30;0.20;;;8.20;99.90;;;;;;5090135;28;20489;-80
2023/12/22 05:18:04;;;;;;;0.30;0.20;;;8.10;99.90;;;;;;5090043;28;20192;-80
2023/12/22 05:20:30;;;;;;;0.30;0.20;;;8.10;99.90;;;;;;5089451;28;20232;-77
2023/12/22 05:22:56;;;;;;;0.30;0.20;;;8.10;99.90;;;;;;5087844;28;20972;-80
2023/12/22 05:25:22;;;;;;;0.30;0.20;;;8.10;99.90;;;;;;5089070;28;20184;-77
2023/12/22 05:27:48;;;;;;;0.30;0.20;;;8.10;99.90;;;;;;5089199;28;20281;-79
2023/12/22 05:30:14;;;;;;;0.30;0.20;;;8.10;99.90;;;;;;5089076;28;20176;-80
2023/12/22 05:32:39;;;;;;;0.30;0.20;;;8.10;99.90;;;;;;5089512;28;20626;-77
2023/12/22 05:35:05;;;;;;;0.30;0.20;;;8.10;99.90;;;;;;5089470;28;20405;-77
2023/12/22 05:37:31;;;;;;;0.30;0.20;;;8.10;99.90;;;;;;5088468;28;20180;-80
2023/12/22 05:39:57;;;;;;;0.30;0.20;;;8.10;99.90;;;;;;5088954;28;20405;-76
2023/12/22 05:42:23;;;;;;;0.30;0.20;;;8.10;99.90;;;;;;5088942;28;20661;-80
2023/12/22 05:44:49;;;;;;;0.30;0.20;;;8.10;99.90;;;;;;5087678;28;20672;-80
2023/12/22 05:47:16;;;;;;;0.30;0.20;;;8.10;99.90;;;;;;5087748;28;20673;-80
2023/12/22 05:49:41;;;;;;;0.30;0.30;;;8.10;99.90;;;;;;5088924;28;20197;-80
2023/12/22 05:52:09;;;;;;;0.30;0.20;;;8.10;99.90;;;;;;5088356;28;20544;-80
2023/12/22 05:54:35;;;;;;;0.30;0.20;;;8.10;99.90;;;;;;5087116;28;20668;-80
2023/12/22 05:57:04;;;;;;;0.30;0.20;;;8.00;99.90;;;;;;5088400;28;20302;-77
2023/12/22 05:59:32;;;;;;;1.60;1.58;;;8.00;99.90;;;;;;5088493;28;20737;-80
2023/12/22 06:01:58;;;;;;;0.30;0.20;;;8.00;99.90;;;;;;5088143;28;20172;-80
2023/12/22 06:04:24;;;;;;;0.30;0.30;;;8.00;99.90;;;;;;5087603;28;20586;-76
2023/12/22 06:06:50;;;;;;;0.30;0.20;;;8.00;99.90;;;;;;5088023;28;20277;-80
2023/12/22 06:09:18;;;;;;;0.30;0.20;;;8.00;99.90;;;;;;5089065;28;20288;-80
2023/12/22 06:11:46;;;;;;;0.30;0.20;;;8.00;99.90;;;;;;5091862;28;20630;-77
2023/12/22 06:14:12;;;;;;;0.30;0.20;;;7.90;99.90;;;;;;5092731;28;20196;-80
2023/12/22 06:16:38;;;;;;;0.30;0.20;;;7.90;99.90;;;;;;5092206;28;20212;-80
2023/12/22 06:19:04;;;;;;;0.30;0.20;;;7.90;99.90;;;;;;5091610;28;20448;-78
2023/12/22 06:21:29;;;;;;;0.40;0.37;;;7.90;99.90;;;;;;5052627;28;1159639;-77
2023/12/22 06:23:55;;;;;;;0.30;0.20;;;7.90;99.90;;;;;;5093662;28;20597;-77
2023/12/22 06:26:21;;;;;;;0.30;0.20;;;7.90;99.90;;;;;;5091420;28;20271;-77
2023/12/22 06:28:46;;;;;;;0.30;0.20;;;8.00;99.90;;;;;;5093348;28;20755;-76
2023/12/22 06:31:20;;;;;;;0.30;0.20;;;8.00;99.90;;;;;;5092879;28;20169;-79
2023/12/22 06:33:47;;;;;;;0.30;0.20;;;8.00;99.90;;;;;;5091541;28;20201;-80
2023/12/22 06:36:24;;;;;;;0.30;0.20;;;8.00;99.90;;;;;;5091961;28;20204;-80
2023/12/22 06:38:51;;;;;;;0.30;0.20;;;8.00;99.90;;;;;;5093140;28;20249;-77
2023/12/22 06:41:30;;;;;;;0.30;0.20;;;8.00;99.90;;;;;;5091168;28;20219;-77
2023/12/22 06:43:59;;;;;;;0.30;0.20;;;8.00;99.90;;;;;;5091670;28;20542;-76
2023/12/22 06:46:31;;;;;;;0.30;0.20;;;8.00;99.90;;;;;;5090495;28;20549;-80
2023/12/22 06:48:57;;;;;;;0.30;0.20;;;8.00;99.90;;;;;;5091805;28;20215;-77
2023/12/22 06:51:28;;;;;;;0.30;0.20;;;8.00;99.90;;;;;;5091212;28;20191;-80
2023/12/22 06:53:55;;;;;;;0.30;0.20;;;8.00;99.90;;;;;;5092865;28;20426;-80
2023/12/22 06:56:25;;;;;;;0.30;0.20;;;8.00;99.90;;;;;;5090532;28;20560;-80
2023/12/22 06:58:53;;;;;;;0.30;0.20;;;7.90;99.90;;;;;;5092842;28;20626;-76
2023/12/22 07:01:24;;;;;;;0.30;0.20;;;7.90;99.90;;;;;;5090427;28;20206;-76
2023/12/22 07:03:51;;;;;;;0.30;0.20;;;7.90;99.90;;;;;;5091749;28;20507;-80
2023/12/22 07:06:20;;;;;;;0.30;0.20;;;7.90;99.90;;;;;;5090866;28;20173;-77
2023/12/22 07:09:11;;;;;;;0.30;0.30;;;7.90;99.90;;;;;;5090793;28;20696;-81
2023/12/22 07:11:40;;;;;;;0.30;0.20;;;7.90;99.90;;;;;;5091000;28;20660;-77
2023/12/22 07:14:06;;;;;;;0.30;0.20;;;7.90;99.90;;;;;;5092901;28;20292;-77
2023/12/22 07:16:33;;;;;;;0.30;0.20;;;7.90;99.90;;;;;;5091879;28;20298;-80
2023/12/22 07:18:58;;;;;;;0.30;0.20;;;8.00;99.90;;;;;;5091577;28;20235;-77
2023/12/22 07:21:24;;;;;;;0.30;0.20;;;8.00;99.90;;;;;;5091022;28;20252;-82
2023/12/22 07:23:49;;;;;;;0.30;0.20;;;8.00;99.90;;;;;;5092486;28;20196;-82
2023/12/22 07:26:15;;;;;;;0.30;0.20;;;8.10;99.90;;;;;;5091645;28;20184;-81
2023/12/22 07:28:41;;;;;;;0.30;0.20;;;8.10;99.90;;;;;;5091824;28;20692;-80
2023/12/22 07:31:06;;;;;;;0.30;0.20;;;8.10;99.90;;;;;;5089843;28;20233;-77
2023/12/22 07:33:32;;;;;;;0.30;0.20;;;8.10;99.90;;;;;;5090047;28;20291;-77
2023/12/22 07:35:58;;;;;;;0.30;0.20;;;8.30;99.90;;;;;;5089246;28;20318;-80
2023/12/22 07:38:23;;;;;;;0.30;0.20;;;8.50;99.90;;;;;;5090897;28;20204;-77
2023/12/22 07:40:49;;;;;;;0.30;0.20;;;8.70;99.90;;;;;;5091463;28;20181;-80
2023/12/22 07:43:15;;;;;;;0.30;0.20;;;8.90;99.90;;;;;;5091776;28;20189;-77
2023/12/22 07:45:41;;;;;;;0.30;0.20;;;9.00;99.90;;;;;;5091492;28;20203;-80
2023/12/22 07:48:07;;;;;;;0.30;0.20;;;9.10;99.90;;;;;;5091330;28;20267;-82
2023/12/22 07:50:33;;;;;;;0.30;0.30;;;9.30;99.90;;;;;;5091385;28;20994;-79
2023/12/22 07:52:59;;;;;;;0.30;0.30;;;9.80;99.90;;;;;;5089332;28;20246;-83
2023/12/22 07:55:25;;;;;;;0.30;0.30;;;10.50;99.90;;;;;;5089707;28;20211;-80
2023/12/22 07:57:51;;;;;;;0.83;0.83;;;11.10;99.90;;;;;;5089656;28;20283;-80
2023/12/22 08:00:17;;;;;;;0.40;0.30;;;11.70;99.90;;;;;;5091322;28;20267;-77
2023/12/22 08:02:43;;;;;;;0.30;0.30;;;12.40;99.90;;;;;;5091129;28;20233;-81
2023/12/22 08:05:09;;;;;;;0.40;0.30;;;13.10;99.90;;;;;;5089905;28;20424;-80
2023/12/22 08:07:36;;;;;;;0.40;0.30;;;14.00;99.90;;;;;;5090059;28;20187;-80
2023/12/22 08:10:02;;;;;;;0.30;0.20;;;14.70;99.90;;;;;;5088356;28;20422;-81
2023/12/22 08:12:28;;;;;;;0.40;0.20;;;15.40;99.90;;;;;;5088822;28;20850;-78
2023/12/22 08:14:54;;;;;;;0.40;0.30;;;15.90;99.90;;;;;;5091143;28;20513;-78
2023/12/22 08:17:20;;;;;;;0.40;0.20;;;16.20;99.90;;;;;;5089368;28;20476;-81
2023/12/22 08:19:47;;;;;;;0.40;0.20;;;16.50;99.90;;;;;;5090558;28;20977;-81
2023/12/22 08:22:15;;;;;;;0.40;0.30;;;17.00;99.70;;;;;;5090512;28;20433;-77
2023/12/22 08:24:41;;;;;;;0.50;0.50;;;17.20;98.70;;;;;;5089697;28;20544;-81
2023/12/22 08:27:07;;;;;;;0.40;0.20;;;17.20;98.10;;;;;;5090527;28;20931;-78
2023/12/22 08:29:33;;;;;;;0.30;0.20;;;17.10;97.20;;;;;;5088863;28;20453;-82
2023/12/22 08:32:00;;;;;;;0.40;0.20;;;17.00;96.90;;;;;;5087662;28;20433;-80
2023/12/22 08:34:26;;;;;;;0.93;0.93;;;16.60;95.80;;;;;;5087736;28;20431;-81
2023/12/22 08:36:52;;;;;;;0.40;0.20;;;16.10;96.30;;;;;;5088334;28;20464;-81
2023/12/22 08:39:17;;;;;;;0.40;0.20;;;15.70;96.70;;;;;;5087759;28;20437;-79
2023/12/22 08:41:44;;;;;;;0.40;0.20;;;15.60;97.10;;;;;;5086878;28;20183;-80
2023/12/22 08:44:10;;;;;;;0.40;0.30;;;15.60;97.40;;;;;;5085407;28;20215;-80
2023/12/22 08:46:36;;;;;;;0.40;0.20;;;15.80;96.50;;;;;;5083230;28;20415;-80
2023/12/22 08:49:02;;;;;;;0.40;0.30;;;16.20;96.10;;;;;;5066004;28;20498;-80
2023/12/22 08:51:28;;;;;;;0.40;0.20;;;16.60;96.40;;;;;;5066426;28;20180;-79
2023/12/22 08:53:55;;;;;;;0.40;0.30;;;17.00;95.80;;;;;;5065435;28;20455;-79
2023/12/22 08:56:24;;;;;;;0.40;0.20;;;17.50;94.60;;;;;;5064004;28;20467;-80
2023/12/22 08:58:52;;;;;;;0.40;0.23;;;18.00;93.70;;;;;;5065357;28;20517;-81
2023/12/22 09:01:18;;;;;;;0.40;0.20;;;18.40;93.30;;;;;;5065876;28;20413;-79
2023/12/22 09:03:46;;;;;;;0.40;0.20;;;18.80;92.70;;;;;;5073366;28;21005;-79
2023/12/22 09:06:22;;;;;;;0.40;0.20;;;19.20;92.10;;;;;;5085260;28;20420;-81
2023/12/22 09:08:48;;;;;;;0.40;0.40;;;19.60;92.10;;;;;;5089423;28;20842;-81
2023/12/22 09:11:17;;;;;;;0.40;0.30;;;20.00;90.50;;;;;;5086215;28;20406;-79
2023/12/22 09:13:43;;;;;;;0.40;0.30;;;20.30;90.50;;;;;;5088700;28;20436;-80
2023/12/22 09:16:10;;;;;;;1.00;0.93;;;20.60;90.10;;;;;;5087063;28;20468;-80
2023/12/22 09:18:36;;;;;;;0.40;0.30;;;20.90;87.20;;;;;;5087545;28;20499;-79
2023/12/22 09:21:02;;;;;;;0.40;0.20;;;21.00;86.10;;;;;;5088686;28;20484;-81
2023/12/22 09:23:29;;;;;;;0.70;0.70;;;21.00;87.00;;;;;;5089043;28;20506;-79
2023/12/22 09:25:55;;;;;;;1.40;0.57;;;20.80;84.40;;;;;;5088512;28;20484;-79
2023/12/22 09:28:20;;;;;;;1.00;1.00;;;20.60;83.50;;;;;;5087330;28;20741;-81
2023/12/22 09:30:46;;;;;;;0.40;0.40;;;20.40;83.60;;;;;;5086136;28;20180;-79
2023/12/22 09:33:12;;;;;;;0.40;0.20;;;20.40;83.40;;;;;;5088372;28;20200;-82
2023/12/22 09:35:41;;;;;;;0.40;0.20;;;20.50;83.10;;;;;;5085971;28;20761;-79
2023/12/22 09:38:09;;;;;;;0.30;0.20;;;20.50;81.50;;;;;;5088680;28;20440;-80
2023/12/22 09:40:36;;;;;;;0.37;0.30;;;20.30;81.20;;;;;;5086955;28;20748;-81
2023/12/22 09:43:05;;;;;;;0.40;0.20;;;19.90;81.70;;;;;;5087313;28;20457;-79
2023/12/22 09:45:33;;;;;;;0.40;0.40;;;19.40;82.10;;;;;;5085673;28;20413;-79
2023/12/22 09:48:00;;;;;;;0.40;0.20;;;18.90;83.50;;;;;;5087549;28;20633;-81
2023/12/22 09:50:30;;;;;;;0.40;0.20;;;18.80;84.00;;;;;;5086937;28;20687;-79
2023/12/22 09:52:56;;;;;;;0.40;0.20;;;18.90;84.40;;;;;;5087337;28;20436;-81
2023/12/22 09:55:23;;;;;;;0.30;0.20;;;19.00;83.90;;;;;;5086589;28;20417;-80
2023/12/22 09:57:50;;;;;;;0.30;0.20;;;19.00;83.80;;;;;;5085065;28;20848;-79
2023/12/22 10:00:17;;;;;;;0.30;0.20;;;18.90;84.40;;;;;;5086626;28;20437;-81
2023/12/22 10:02:45;;;;;;;0.30;0.20;;;18.80;84.30;;;;;;5085442;28;20416;-81
2023/12/22 10:05:13;;;;;;;0.40;0.30;;;18.50;83.80;;;;;;5083730;28;20789;-81
2023/12/22 10:07:41;;;;;;;0.40;0.20;;;18.20;84.50;;;;;;5086096;28;20433;-80
2023/12/22 10:10:08;;;;;;;0.40;0.20;;;17.80;84.60;;;;;;5088584;28;20942;-79
2023/12/22 10:12:34;;;;;;;0.40;0.20;;;17.50;86.50;;;;;;5086788;28;20434;-81
2023/12/22 10:15:02;;;;;;;0.40;0.20;;;17.20;87.90;;;;;;5085404;28;20714;-81
2023/12/22 10:17:30;;;;;;;0.30;0.20;;;17.00;87.70;;;;;;5087976;28;20700;-81
2023/12/22 10:19:55;;;;;;;0.40;0.20;;;16.70;86.70;;;;;;5088226;28;20889;-81
2023/12/22 10:22:23;;;;;;;1.40;1.33;;;16.40;87.60;;;;;;5086759;28;20512;-79
2023/12/22 10:24:50;;;;;;;0.40;0.30;;;16.10;88.30;;;;;;5086998;28;20225;-81
2023/12/22 10:27:22;;;;;;;0.40;0.30;;;15.90;89.70;;;;;;5085269;28;20412;-81
2023/12/22 10:29:54;;;;;;;0.30;0.20;;;15.60;87.70;;;;;;5083221;28;20451;-81
2023/12/22 10:32:21;;;;;;;1.43;1.43;;;15.40;88.70;;;;;;5084508;28;20913;-81
2023/12/22 10:34:47;;;;;;;0.87;0.87;;;15.10;88.20;;;;;;5086064;28;20960;-78
2023/12/22 10:37:13;;;;;;;0.30;0.20;;;15.00;90.00;;;;;;5080075;28;20480;-79
2023/12/22 10:39:39;;;;;;;0.40;0.33;;;14.90;90.20;;;;;;5086134;28;20540;-80
2023/12/22 10:42:05;;;;;;;0.40;0.20;;;14.90;88.60;;;;;;5082110;28;20211;-79
2023/12/22 10:44:31;;;;;;;0.30;0.20;;;14.80;89.30;;;;;;5086404;28;20722;-81
2023/12/22 10:46:58;;;;;;;0.40;0.20;;;14.70;88.80;;;;;;5083403;28;21083;-81
2023/12/22 10:49:25;;;;;;;0.40;0.20;;;14.60;89.40;;;;;;5083532;28;20204;-79
2023/12/22 10:51:51;;;;;;;0.30;0.20;;;14.50;89.70;;;;;;5082273;28;20415;-81
2023/12/22 10:54:18;;;;;;;0.40;0.20;;;14.40;89.30;;;;;;5079324;28;20456;-78
2023/12/22 10:56:44;;;;;;;0.37;0.20;;;14.30;88.60;;;;;;5082877;28;20471;-81
2023/12/22 10:59:10;;;;;;;0.40;0.20;;;14.20;89.10;;;;;;5082623;28;20445;-81
2023/12/22 11:01:40;;;;;;;0.30;0.20;;;14.00;90.10;;;;;;5070230;28;20918;-81
2023/12/22 11:04:10;;;;;;;0.40;0.20;;;13.80;89.80;;;;;;5068212;28;20405;-79
2023/12/22 11:06:37;;;;;;;0.40;0.20;;;13.60;90.30;;;;;;5067708;28;20457;-81
2023/12/22 11:09:10;;;;;;;0.30;0.20;;;13.50;90.10;;;;;;5069176;28;20437;-81
2023/12/22 11:11:38;;;;;;;0.30;0.20;;;13.30;88.90;;;;;;5069684;28;20773;-79
2023/12/22 11:14:05;;;;;;;0.30;0.20;;;13.10;89.70;;;;;;5069777;28;20445;-78
2023/12/22 11:16:33;;;;;;;0.30;0.20;;;13.00;90.20;;;;;;5069721;28;20453;-80
2023/12/22 11:19:00;;;;;;;0.40;0.20;;;12.90;90.70;;;;;;5070972;28;20506;-80
2023/12/22 11:21:26;;;;;;;0.30;0.20;;;12.80;91.10;;;;;;5070110;28;20971;-79
2023/12/22 11:23:53;;;;;;;0.30;0.20;;;12.70;91.10;;;;;;5068770;28;20435;-78
2023/12/22 11:26:21;;;;;;;0.30;0.20;;;12.60;90.90;;;;;;5071120;28;20433;-80
2023/12/22 11:28:48;;;;;;;0.30;0.20;;;12.40;91.30;;;;;;5070671;28;20449;-81
2023/12/22 11:31:18;;;;;;;0.30;0.20;;;12.30;91.40;;;;;;5068090;28;20426;-81
2023/12/22 11:33:46;;;;;;;0.30;0.20;;;12.20;91.90;;;;;;5069059;28;20441;-81
2023/12/22 11:36:13;;;;;;;0.30;0.20;;;12.10;91.60;;;;;;5067233;28;20474;-81
2023/12/22 11:38:40;;;;;;;0.30;0.20;;;12.00;91.50;;;;;;5069473;28;20534;-81
2023/12/22 11:41:10;;;;;;;0.30;0.20;;;11.90;92.10;;;;;;5068807;28;20933;-78
2023/12/22 11:43:38;;;;;;;0.30;0.20;;;11.80;92.60;;;;;;5067627;28;20205;-82
2023/12/22 11:46:04;;;;;;;5.40;4.37;;;11.80;92.00;;;;;;5069557;28;21066;-80
2023/12/22 11:48:30;;;;;;;0.30;0.20;;;11.80;91.80;;;;;;5070292;28;20858;-78
2023/12/22 11:50:56;;;;;;;0.30;0.20;;;11.80;91.90;;;;;;5069093;28;20421;-78
2023/12/22 11:53:24;;;;;;;0.30;0.20;;;11.90;92.60;;;;;;5070760;28;20453;-78
2023/12/22 11:56:04;;;;;;;4.93;3.50;;;11.80;91.40;;;;;;5070006;28;20462;-81
2023/12/22 11:58:53;;;;;;;0.30;0.20;;;11.80;91.30;;;;;;5085637;28;20832;-79
2023/12/22 12:01:21;;;;;;;0.30;0.20;;;11.80;91.30;;;;;;5070090;28;20403;-78
2023/12/22 12:03:55;;;;;;;0.30;0.20;;;11.80;91.50;;;;;;5070532;28;20799;-81
2023/12/22 12:06:26;;;;;;;0.30;0.20;;;11.80;91.70;;;;;;5069774;28;20430;-81
2023/12/22 12:08:55;;;;;;;0.30;0.20;;;11.80;91.80;;;;;;5069700;28;20698;-78
2023/12/22 12:11:44;;;;;;;0.30;0.20;;;11.90;91.90;;;;;;5069685;28;20177;-78
2023/12/22 12:14:14;;;;;;;0.30;0.20;;;11.90;92.20;;;;;;5068983;28;20457;-78
2023/12/22 12:16:42;;;;;;;0.30;0.20;;;11.90;92.10;;;;;;5070116;28;20482;-81
2023/12/22 12:19:09;;;;;;;0.30;0.20;;;11.90;91.80;;;;;;5067960;28;20844;-78
2023/12/22 12:21:35;;;;;;;0.30;0.20;;;11.80;91.60;;;;;;5069988;28;20502;-81
2023/12/22 12:24:00;;;;;;;0.30;0.20;;;11.80;91.80;;;;;;5070467;28;20642;-78
2023/12/22 12:26:28;;;;;;;0.30;0.20;;;11.80;91.80;;;;;;5068409;28;20181;-79
2023/12/22 12:28:56;;;;;;;0.30;0.20;;;11.70;91.30;;;;;;5070194;28;20639;-81
2023/12/22 12:31:36;;;;;;;0.30;0.20;;;11.60;91.50;;;;;;5069637;28;20516;-81
2023/12/22 12:34:02;;;;;;;0.30;0.20;;;11.50;91.90;;;;;;5088209;28;20196;-79
2023/12/22 12:36:28;;;;;;;0.30;0.20;;;11.40;92.10;;;;;;5085637;28;20698;-79
2023/12/22 12:38:58;;;;;;;1.47;1.47;;;11.30;92.00;;;;;;5086492;28;20437;-80
2023/12/22 12:41:31;;;;;;;0.30;0.20;;;11.20;92.10;;;;;;5089883;28;20930;-79
2023/12/22 12:43:58;;;;;;;0.30;0.20;;;11.20;92.50;;;;;;5090066;28;20195;-81
2023/12/22 12:46:44;;;;;;;0.30;0.20;;;11.20;92.90;;;;;;5079457;28;20339;-81
2023/12/22 12:49:12;;;;;;;0.30;0.20;;;11.20;93.00;;;;;;5085033;28;20306;-81
2023/12/22 12:51:38;;;;;;;0.30;0.20;;;11.20;92.80;;;;;;5087438;28;20184;-81